createdAt,value
2018-01-18T00:02:42.938Z,74.43
2018-01-18T00:07:44.258Z,74.42
2018-01-18T00:12:45.571Z,74.58
2018-01-18T00:17:47.678Z,74.30
2018-01-18T00:22:48.991Z,74.45
2018-01-18T00:27:50.306Z,74.85
2018-01-18T00:32:51.606Z,74.60
2018-01-18T00:37:52.932Z,74.50
2018-01-18T00:42:54.235Z,74.50
2018-01-18T00:47:56.340Z,74.60
2018-01-18T00:52:58.381Z,74.60
2018-01-18T00:57:59.709Z,74.44
2018-01-18T01:03:01.038Z,74.54
2018-01-18T01:08:02.367Z,74.45
2018-01-18T01:13:03.675Z,74.14
2018-01-18T01:18:05.033Z,74.17
2018-01-18T01:23:06.347Z,73.98
2018-01-18T01:28:07.655Z,73.80
2018-01-18T01:33:09.017Z,73.78
2018-01-18T01:38:10.383Z,73.80
2018-01-18T01:43:11.747Z,74.02
2018-01-18T01:48:13.858Z,74.00
2018-01-18T01:53:15.928Z,74.07
2018-01-18T01:58:17.250Z,74.23
2018-01-18T02:03:19.322Z,73.90
2018-01-18T02:08:20.658Z,73.44
2018-01-18T02:13:21.980Z,73.65
2018-01-18T02:18:23.300Z,73.13
2018-01-18T02:23:24.623Z,72.99
2018-01-18T02:28:25.928Z,72.78
2018-01-18T02:33:27.245Z,72.86
2018-01-18T02:38:28.554Z,72.51
2018-01-18T02:43:29.855Z,72.39
2018-01-18T02:48:31.268Z,72.22
2018-01-18T02:53:32.612Z,72.18
2018-01-18T02:58:33.939Z,71.83
2018-01-18T03:03:36.008Z,71.88
2018-01-18T03:08:37.352Z,71.38
2018-01-18T03:13:38.713Z,71.56
2018-01-18T03:18:40.765Z,71.21
2018-01-18T03:23:42.080Z,71.20
2018-01-18T03:28:43.427Z,71.70
2018-01-18T03:33:44.784Z,71.32
2018-01-18T03:38:46.122Z,71.20
2018-01-18T03:43:47.462Z,70.93
2018-01-18T03:48:48.816Z,71.11
2018-01-18T03:53:50.171Z,70.69
2018-01-18T03:58:51.492Z,70.69
2018-01-18T04:03:52.863Z,70.72
2018-01-18T04:08:54.216Z,70.46
2018-01-18T04:13:56.263Z,70.42
2018-01-18T04:18:57.578Z,70.27
2018-01-18T04:23:58.881Z,70.39
2018-01-18T04:29:00.203Z,70.65
2018-01-18T04:34:02.257Z,70.55
2018-01-18T04:39:03.631Z,70.14
2018-01-18T04:44:04.924Z,70.10
2018-01-18T04:49:06.226Z,70.01
2018-01-18T04:54:07.554Z,70.17
2018-01-18T04:59:09.622Z,69.78
2018-01-18T05:04:10.974Z,69.61
2018-01-18T05:09:12.317Z,69.63
2018-01-18T05:14:13.696Z,70.17
2018-01-18T05:19:16.005Z,70.15
2018-01-18T05:24:17.380Z,70.08
2018-01-18T05:29:18.708Z,70.86
2018-01-18T05:34:20.046Z,71.37
2018-01-18T05:39:21.376Z,71.90
2018-01-18T05:44:22.697Z,71.83
2018-01-18T05:49:24.762Z,71.97
2018-01-18T05:54:26.073Z,72.06
2018-01-18T05:59:27.379Z,72.13
2018-01-18T06:04:29.490Z,72.81
2018-01-18T06:09:31.578Z,72.92
2018-01-18T06:14:32.886Z,73.15
2018-01-18T06:19:34.974Z,73.57
2018-01-18T06:24:37.020Z,73.95
2018-01-18T06:29:38.343Z,74.09
2018-01-18T06:34:39.687Z,73.85
2018-01-18T06:39:41.087Z,74.05
2018-01-18T06:44:42.418Z,74.24
2018-01-18T06:49:43.879Z,74.28
2018-01-18T06:54:45.215Z,74.56
2018-01-18T06:59:46.597Z,74.40
2018-01-18T07:04:47.923Z,74.38
2018-01-18T07:09:50.043Z,74.49
2018-01-18T07:14:51.365Z,74.82
2018-01-18T07:19:52.759Z,74.77
2018-01-18T07:24:54.319Z,75.01
2018-01-18T07:29:55.695Z,75.09
2018-01-18T07:34:57.752Z,75.69
2018-01-18T07:39:59.087Z,75.71
2018-01-18T07:45:01.140Z,76.08
2018-01-18T07:50:02.467Z,76.06
2018-01-18T07:55:04.531Z,75.42
2018-01-18T08:00:06.089Z,75.61
2018-01-18T08:05:07.490Z,76.58
2018-01-18T08:10:08.815Z,76.76
2018-01-18T08:15:10.208Z,76.32
2018-01-18T08:20:11.591Z,75.63
2018-01-18T08:25:12.943Z,75.81
2018-01-18T08:30:14.293Z,75.71
2018-01-18T08:35:15.859Z,75.71
2018-01-18T08:40:17.182Z,75.91
2018-01-18T08:45:18.630Z,76.02
2018-01-18T08:50:20.395Z,75.81
2018-01-18T08:55:22.999Z,75.61
2018-01-18T09:00:24.379Z,76.05
2018-01-18T09:05:26.197Z,75.52
2018-01-18T09:10:28.301Z,75.87
2018-01-18T09:15:30.263Z,76.09
2018-01-18T09:20:32.219Z,75.80
2018-01-18T09:25:34.491Z,74.82
2018-01-18T09:30:35.843Z,74.04
2018-01-18T09:35:37.166Z,73.64
2018-01-18T09:40:38.543Z,74.11
2018-01-18T09:45:39.949Z,73.50
2018-01-18T09:50:41.308Z,72.69
2018-01-18T09:55:42.676Z,70.59
2018-01-18T10:00:44.011Z,70.17
2018-01-18T10:05:45.364Z,68.91
2018-01-18T10:10:46.750Z,69.10
2018-01-18T10:15:48.075Z,67.94
2018-01-18T10:20:49.426Z,66.99
2018-01-18T10:25:50.747Z,66.00
2018-01-18T10:30:52.073Z,66.01
2018-01-18T10:35:53.517Z,64.26
2018-01-18T10:40:54.868Z,64.24
2018-01-18T10:45:56.223Z,62.47
2018-01-18T10:50:57.552Z,62.01
2018-01-18T10:55:59.713Z,60.99
2018-01-18T11:01:01.040Z,60.43
2018-01-18T11:06:03.168Z,59.99
2018-01-18T11:11:04.514Z,60.40
2018-01-18T11:16:05.868Z,59.64
2018-01-18T11:21:07.191Z,59.62
2018-01-18T11:26:08.607Z,60.90
2018-01-18T11:31:10.715Z,64.29
2018-01-18T11:36:12.112Z,65.84
2018-01-18T11:41:14.257Z,66.99
2018-01-18T11:46:15.606Z,68.64
2018-01-18T11:51:18.131Z,70.99
2018-01-18T11:56:20.234Z,72.57
2018-01-18T12:01:21.572Z,73.07
2018-01-18T12:06:23.011Z,74.20
2018-01-18T12:11:25.070Z,74.45
2018-01-18T12:16:26.425Z,74.58
2018-01-18T12:21:28.508Z,75.22
2018-01-18T12:26:29.811Z,75.67
2018-01-18T12:31:31.875Z,75.42
2018-01-18T12:36:33.221Z,75.69
2018-01-18T12:41:35.306Z,74.99
2018-01-18T12:46:37.362Z,72.81
2018-01-18T12:51:38.689Z,71.81
2018-01-18T12:56:40.031Z,71.78
2018-01-18T13:01:41.360Z,71.67
2018-01-18T13:06:42.683Z,71.89
2018-01-18T13:11:44.753Z,71.27
2018-01-18T13:16:46.071Z,70.43
2018-01-18T13:21:48.879Z,69.95
2018-01-18T13:26:50.372Z,69.68
2018-01-18T13:31:52.347Z,68.80
2018-01-18T13:36:54.680Z,67.62
2018-01-18T13:41:56.536Z,67.36
2018-01-18T13:46:58.537Z,66.47
2018-01-18T13:52:00.538Z,66.70
2018-01-18T13:57:02.530Z,66.62
2018-01-18T14:02:04.711Z,65.96
2018-01-18T14:07:07.450Z,66.36
2018-01-18T14:12:09.164Z,66.12
2018-01-18T14:17:10.830Z,66.65
2018-01-18T14:22:12.676Z,66.22
2018-01-18T14:27:14.076Z,67.82
2018-01-18T14:32:15.478Z,68.01
2018-01-18T14:37:17.294Z,67.42
2018-01-18T14:42:20.199Z,67.03
2018-01-18T14:47:22.131Z,66.75
2018-01-18T14:52:23.480Z,66.58
2018-01-18T14:57:24.845Z,66.12
2018-01-18T15:02:26.182Z,65.77
2018-01-18T15:07:27.523Z,65.37
2018-01-18T15:12:29.610Z,64.97
2018-01-18T15:17:30.934Z,65.23
2018-01-18T15:22:32.255Z,65.34
2018-01-18T15:27:33.631Z,65.39
2018-01-18T15:32:34.972Z,65.74
2018-01-18T15:37:36.340Z,66.59
2018-01-18T15:42:37.708Z,66.98
2018-01-18T15:47:39.075Z,67.42
2018-01-18T15:52:40.413Z,67.90
2018-01-18T15:57:41.801Z,68.11
2018-01-18T16:02:43.131Z,68.12
2018-01-18T16:07:44.539Z,68.09
2018-01-18T16:12:45.864Z,69.12
2018-01-18T16:17:47.206Z,69.08
2018-01-18T16:22:49.310Z,69.08
2018-01-18T16:27:51.367Z,69.60
2018-01-18T16:32:52.966Z,69.90
2018-01-18T16:37:55.498Z,70.15
2018-01-18T16:42:57.275Z,70.72
2018-01-18T16:47:59.105Z,71.08
2018-01-18T16:53:00.863Z,71.13
2018-01-18T16:58:03.571Z,71.24
2018-01-18T17:03:05.604Z,71.04
2018-01-18T17:08:07.490Z,70.72
2018-01-18T17:13:09.436Z,70.69
2018-01-18T17:18:11.283Z,70.20
2018-01-18T17:23:13.172Z,70.44
2018-01-18T17:28:15.196Z,70.98
2018-01-18T17:33:17.052Z,70.83
2018-01-18T17:38:19.161Z,71.21
2018-01-18T17:43:21.075Z,71.77
2018-01-18T17:48:23.446Z,72.48
2018-01-18T17:53:25.211Z,72.65
2018-01-18T17:58:27.164Z,72.87
2018-01-18T18:03:29.635Z,72.94
2018-01-18T18:08:31.732Z,73.04
2018-01-18T18:13:33.592Z,73.53
2018-01-18T18:18:35.675Z,73.58
2018-01-18T18:23:38.556Z,73.41
2018-01-18T18:28:40.305Z,73.30
2018-01-18T18:33:42.616Z,72.59
2018-01-18T18:38:45.310Z,72.74
2018-01-18T18:43:48.429Z,72.75
2018-01-18T18:48:50.769Z,72.89
2018-01-18T18:53:53.505Z,72.97
2018-01-18T18:58:56.288Z,72.79
2018-01-18T19:03:58.116Z,72.45
2018-01-18T19:08:59.704Z,72.32
2018-01-18T19:14:01.189Z,72.21
2018-01-18T19:19:02.683Z,72.10
2018-01-18T19:24:04.313Z,71.62
2018-01-18T19:29:06.674Z,71.01
2018-01-18T19:34:08.465Z,70.72
2018-01-18T19:39:10.665Z,70.66
2018-01-18T19:44:13.183Z,70.79
2018-01-18T19:49:14.567Z,71.35
2018-01-18T19:54:15.930Z,71.78
2018-01-18T19:59:17.255Z,72.15
2018-01-18T20:04:18.583Z,73.03
2018-01-18T20:09:19.941Z,73.03
2018-01-18T20:14:21.999Z,73.29
2018-01-18T20:19:23.812Z,73.03
2018-01-18T20:24:25.146Z,72.88
2018-01-18T20:29:28.049Z,72.90
2018-01-18T20:34:29.400Z,72.25
2018-01-18T20:39:30.775Z,71.81
2018-01-18T20:44:32.161Z,71.64
2018-01-18T20:49:33.524Z,71.64
2018-01-18T20:54:35.617Z,71.37
2018-01-18T20:59:36.939Z,71.09
2018-01-18T21:04:38.281Z,70.49
2018-01-18T21:09:39.616Z,70.41
2018-01-18T21:14:41.723Z,70.25
2018-01-18T21:19:43.804Z,70.09
2018-01-18T21:24:45.168Z,69.99
2018-01-18T21:29:46.543Z,69.93
2018-01-18T21:34:47.892Z,70.41
2018-01-18T21:39:50.044Z,70.34
2018-01-18T21:44:51.383Z,70.65
2018-01-18T21:49:53.439Z,70.51
2018-01-18T21:54:54.810Z,70.50
2018-01-18T21:59:56.206Z,70.29
2018-01-18T22:04:57.567Z,70.47
2018-01-18T22:09:58.985Z,70.63
2018-01-18T22:15:00.409Z,70.99
2018-01-18T22:20:01.827Z,71.22
2018-01-18T22:25:03.258Z,71.02
2018-01-18T22:30:04.583Z,71.58
2018-01-18T22:35:05.892Z,72.10
2018-01-18T22:40:07.233Z,71.61
2018-01-18T22:45:08.579Z,71.62
2018-01-18T22:50:10.657Z,71.61
2018-01-18T22:55:12.000Z,71.53
2018-01-18T23:00:17.355Z,71.30
2018-01-18T23:05:18.710Z,71.18
2018-01-18T23:10:20.023Z,72.20
2018-01-18T23:15:21.351Z,72.14
2018-01-18T23:20:22.708Z,72.09
2018-01-18T23:25:24.033Z,72.29
2018-01-18T23:30:25.387Z,72.75
2018-01-18T23:35:26.811Z,72.60
2018-01-18T23:40:28.135Z,72.65
2018-01-18T23:45:29.660Z,72.43
2018-01-18T23:50:31.010Z,72.81
2018-01-18T23:55:32.339Z,72.43
